Terminal Aerodrome Forecast
Issued by NWS

Home | Current Version | Previous Version | Graphics & Text | Print | Product List | Glossary On
Versions: 1 2 3 4 5 6 7 8 9 10 11 12 13 14 15 16 17
000
FTUS43 KICT 310500
TAFHUT
TAF
KHUT 310520Z 3106/0106 02005KT 3SM BR SCT002
      TEMPO 3106/3109 1/4SM BCFG VV002
     FM311300 07005KT P6SM SCT045=

USA.gov is the U.S. government's official web portal to all federal, state and local government web resources and services.